createdAt,value
2023-09-22T00:00:11.491Z,1.70
2023-09-22T00:02:41.812Z,1.80
2023-09-22T00:05:11.537Z,1.70
2023-09-22T00:07:38.732Z,1.70
2023-09-22T00:10:07.227Z,1.60
2023-09-22T00:12:33.765Z,1.93
2023-09-22T00:15:00.776Z,1.83
2023-09-22T00:17:28.847Z,1.83
2023-09-22T00:19:55.686Z,1.63
2023-09-22T00:22:22.146Z,1.47
2023-09-22T00:24:48.532Z,1.67
2023-09-22T00:27:17.105Z,1.80
2023-09-22T00:29:43.807Z,1.73
2023-09-22T00:32:12.805Z,1.97
2023-09-22T00:34:39.704Z,1.67
2023-09-22T00:37:06.444Z,1.83
2023-09-22T00:39:32.884Z,2.00
2023-09-22T00:42:00.638Z,2.30
2023-09-22T00:44:27.027Z,2.27
2023-09-22T00:46:53.591Z,2.50
2023-09-22T00:49:20.317Z,3.60
2023-09-22T00:51:47.095Z,3.20
2023-09-22T00:54:14.855Z,2.90
2023-09-22T00:56:41.251Z,3.20
2023-09-22T00:59:08.786Z,2.90
2023-09-22T01:01:35.457Z,3.30
2023-09-22T01:04:01.964Z,2.93
2023-09-22T01:06:30.824Z,3.43
2023-09-22T01:08:57.674Z,3.33
2023-09-22T01:11:24.120Z,3.77
2023-09-22T01:13:50.499Z,3.67
2023-09-22T01:16:17.293Z,3.47
2023-09-22T01:18:44.923Z,4.00
2023-09-22T01:21:14.018Z,3.83
2023-09-22T01:23:40.647Z,3.77
2023-09-22T01:26:06.994Z,4.30
2023-09-22T01:28:33.786Z,4.20
2023-09-22T01:31:00.393Z,4.63
2023-09-22T01:33:26.837Z,4.40
2023-09-22T01:35:53.835Z,4.27
2023-09-22T01:38:24.830Z,4.50
2023-09-22T01:40:51.564Z,4.97
2023-09-22T01:43:20.802Z,5.27
2023-09-22T01:45:47.287Z,5.17
2023-09-22T01:48:14.596Z,5.63
2023-09-22T01:50:42.377Z,4.80
2023-09-22T01:53:10.973Z,5.20
2023-09-22T01:55:38.403Z,4.80
2023-09-22T01:58:05.543Z,4.23
2023-09-22T02:00:34.027Z,3.93
2023-09-22T02:03:01.438Z,3.40
2023-09-22T02:05:28.302Z,2.83
2023-09-22T02:07:54.767Z,2.67
2023-09-22T02:10:21.370Z,2.50
2023-09-22T02:12:47.875Z,2.47
2023-09-22T02:15:14.859Z,2.60
2023-09-22T02:17:43.189Z,2.67
2023-09-22T02:20:23.448Z,2.40
2023-09-22T02:22:52.034Z,2.70
2023-09-22T02:25:18.971Z,2.60
2023-09-22T02:27:45.779Z,2.60
2023-09-22T02:30:12.321Z,2.60
2023-09-22T02:32:40.341Z,2.20
2023-09-22T02:35:06.993Z,2.30
2023-09-22T02:37:33.467Z,2.20
2023-09-22T02:40:00.111Z,2.47
2023-09-22T02:42:27.770Z,2.40
2023-09-22T02:44:54.430Z,2.30
2023-09-22T02:47:21.109Z,2.50
2023-09-22T02:49:48.732Z,2.70
2023-09-22T02:52:15.306Z,2.70
2023-09-22T02:54:41.725Z,2.20
2023-09-22T02:57:08.144Z,2.20
2023-09-22T02:59:34.489Z,1.90
2023-09-22T03:02:00.941Z,2.00
2023-09-22T03:04:27.337Z,1.77
2023-09-22T03:06:53.763Z,1.77
2023-09-22T03:09:20.152Z,1.60
2023-09-22T03:11:46.891Z,1.67
2023-09-22T03:14:13.476Z,1.70
2023-09-22T03:16:40.317Z,1.47
2023-09-22T03:19:08.443Z,1.40
2023-09-22T03:21:35.113Z,1.70
2023-09-22T03:24:01.563Z,1.70
2023-09-22T03:26:28.124Z,1.80
2023-09-22T03:28:54.466Z,1.83
2023-09-22T03:31:20.947Z,1.70
2023-09-22T03:33:47.900Z,1.60
2023-09-22T03:36:14.512Z,1.70
2023-09-22T03:38:51.065Z,1.90
2023-09-22T03:41:18.510Z,2.00
2023-09-22T03:43:45.367Z,2.10
2023-09-22T03:46:11.821Z,1.90
2023-09-22T03:48:38.851Z,1.60
2023-09-22T03:51:06.645Z,2.37
2023-09-22T03:53:33.017Z,1.70
2023-09-22T03:55:59.518Z,1.80
2023-09-22T03:58:26.731Z,2.17
2023-09-22T04:01:12.835Z,2.10
2023-09-22T04:03:39.279Z,2.33
2023-09-22T04:06:06.354Z,2.67
2023-09-22T04:08:33.114Z,2.00
2023-09-22T04:10:59.740Z,2.50
2023-09-22T04:13:28.233Z,2.10
2023-09-22T04:16:00.303Z,2.50
2023-09-22T04:18:30.398Z,2.43
2023-09-22T04:20:58.745Z,2.60
2023-09-22T04:23:26.329Z,2.80
2023-09-22T04:25:55.366Z,3.47
2023-09-22T04:28:24.704Z,3.80
2023-09-22T04:30:51.482Z,4.33
2023-09-22T04:33:18.751Z,4.00
2023-09-22T04:35:45.352Z,4.13
2023-09-22T04:38:12.342Z,4.00
2023-09-22T04:40:39.430Z,4.47
2023-09-22T04:43:08.915Z,3.63
2023-09-22T04:45:42.658Z,4.23
2023-09-22T04:48:09.981Z,4.37
2023-09-22T04:50:37.004Z,4.87
2023-09-22T04:53:05.514Z,4.20
2023-09-22T04:55:36.414Z,5.07
2023-09-22T04:58:04.256Z,4.63
2023-09-22T05:00:34.391Z,5.10
2023-09-22T05:03:01.722Z,5.30
2023-09-22T05:05:29.451Z,5.30
2023-09-22T05:07:56.235Z,5.17
2023-09-22T05:10:22.750Z,5.70
2023-09-22T05:12:51.212Z,4.77
2023-09-22T05:15:17.670Z,4.87
2023-09-22T05:17:44.549Z,5.60
2023-09-22T05:20:14.985Z,4.90
2023-09-22T05:22:42.238Z,5.00
2023-09-22T05:25:09.233Z,5.40
2023-09-22T05:27:36.270Z,5.10
2023-09-22T05:30:04.968Z,6.13
2023-09-22T05:32:31.354Z,5.20
2023-09-22T05:34:58.756Z,5.80
2023-09-22T05:37:25.168Z,6.03
2023-09-22T05:39:52.556Z,6.50
2023-09-22T05:42:19.026Z,5.80
2023-09-22T05:44:45.425Z,6.13
2023-09-22T05:47:11.891Z,5.90
2023-09-22T05:49:38.241Z,5.60
2023-09-22T05:52:05.227Z,6.00
2023-09-22T05:54:31.731Z,5.80
2023-09-22T05:56:58.850Z,5.57
2023-09-22T05:59:28.967Z,5.60
2023-09-22T06:01:56.883Z,5.67
2023-09-22T06:04:23.419Z,5.40
2023-09-22T06:06:51.666Z,5.20
2023-09-22T06:09:19.026Z,5.27
2023-09-22T06:11:46.466Z,4.97
2023-09-22T06:14:14.767Z,5.10
2023-09-22T06:16:41.142Z,5.53
2023-09-22T06:19:09.927Z,4.97
2023-09-22T06:21:37.197Z,5.50
2023-09-22T06:24:03.848Z,5.27
2023-09-22T06:26:30.274Z,5.90
2023-09-22T06:28:56.977Z,5.07
2023-09-22T06:31:23.358Z,5.47
2023-09-22T06:33:50.878Z,6.10
2023-09-22T06:36:18.479Z,5.80
2023-09-22T06:38:44.958Z,5.53
2023-09-22T06:41:17.737Z,5.77
2023-09-22T06:43:56.604Z,6.00
2023-09-22T06:46:26.282Z,6.37
2023-09-22T06:48:53.063Z,7.07
2023-09-22T06:51:20.025Z,7.43
2023-09-22T06:53:48.297Z,7.93
2023-09-22T06:56:14.715Z,10.03
2023-09-22T06:58:41.555Z,9.73
2023-09-22T07:01:13.461Z,10.60
2023-09-22T07:03:44.556Z,10.83
2023-09-22T07:06:15.804Z,11.90
2023-09-22T07:08:44.820Z,10.47
2023-09-22T07:11:11.377Z,10.00
2023-09-22T07:13:38.767Z,11.10
2023-09-22T07:16:05.677Z,10.57
2023-09-22T07:18:32.299Z,11.07
2023-09-22T07:20:58.781Z,11.17
2023-09-22T07:23:25.591Z,11.53
2023-09-22T07:26:05.515Z,11.00
2023-09-22T07:28:32.520Z,10.90
2023-09-22T07:30:59.685Z,11.80
2023-09-22T07:33:32.185Z,11.03
2023-09-22T07:35:59.895Z,11.37
2023-09-22T07:38:27.261Z,12.10
2023-09-22T07:40:53.929Z,12.73
2023-09-22T07:43:20.320Z,13.07
2023-09-22T07:45:47.032Z,12.17
2023-09-22T07:48:14.264Z,12.13
2023-09-22T07:50:41.345Z,12.23
2023-09-22T07:53:09.024Z,12.17
2023-09-22T07:55:36.427Z,11.90
2023-09-22T07:58:04.555Z,10.13
2023-09-22T08:00:31.168Z,12.70
2023-09-22T08:03:01.388Z,11.33
2023-09-22T08:05:32.488Z,11.40
2023-09-22T08:08:00.043Z,11.63
2023-09-22T08:10:26.772Z,11.27
2023-09-22T08:12:54.620Z,11.50
2023-09-22T08:15:22.977Z,11.30
2023-09-22T08:17:50.784Z,11.57
2023-09-22T08:20:17.981Z,11.63
2023-09-22T08:22:44.653Z,11.37
2023-09-22T08:25:12.371Z,10.87
2023-09-22T08:27:39.501Z,10.50
2023-09-22T08:30:12.784Z,10.50
2023-09-22T08:32:41.524Z,10.53
2023-09-22T08:35:14.846Z,9.50
2023-09-22T08:37:43.366Z,9.37
2023-09-22T08:40:12.576Z,10.13
2023-09-22T08:42:39.499Z,9.30
2023-09-22T08:45:09.849Z,8.63
2023-09-22T08:47:41.368Z,10.03
2023-09-22T08:50:13.521Z,8.60
2023-09-22T08:52:41.374Z,8.30
2023-09-22T08:55:10.072Z,9.00
2023-09-22T08:57:37.035Z,7.87
2023-09-22T09:00:11.890Z,8.27
2023-09-22T09:02:38.730Z,7.97
2023-09-22T09:05:31.750Z,8.13
2023-09-22T09:08:30.589Z,7.97
2023-09-22T09:10:58.347Z,7.33
2023-09-22T09:13:25.306Z,6.50
2023-09-22T09:15:55.743Z,6.47
2023-09-22T09:18:24.263Z,6.50
2023-09-22T09:21:15.893Z,6.50
2023-09-22T09:23:55.106Z,7.50
2023-09-22T09:26:28.012Z,6.50
2023-09-22T09:28:54.690Z,7.10
2023-09-22T09:31:21.713Z,6.23
2023-09-22T09:33:52.304Z,6.37
2023-09-22T09:36:18.709Z,6.20
2023-09-22T09:38:45.196Z,5.67
2023-09-22T09:41:12.176Z,5.63
2023-09-22T09:43:44.153Z,5.30
2023-09-22T09:46:11.369Z,4.93
2023-09-22T09:48:38.459Z,5.60
2023-09-22T09:51:10.393Z,5.50
2023-09-22T09:53:38.817Z,5.13
2023-09-22T09:56:06.880Z,4.70
2023-09-22T09:58:35.686Z,5.70
2023-09-22T10:01:06.252Z,4.63
2023-09-22T10:03:34.965Z,4.90
2023-09-22T10:06:04.432Z,4.67
2023-09-22T10:08:31.223Z,5.20
2023-09-22T10:11:00.878Z,4.47
2023-09-22T10:13:28.145Z,4.73
2023-09-22T10:16:02.347Z,4.07
2023-09-22T10:18:48.989Z,4.37
2023-09-22T10:21:31.112Z,4.17
2023-09-22T10:24:16.869Z,4.30
2023-09-22T10:26:55.685Z,3.93
2023-09-22T10:29:34.743Z,3.80
2023-09-22T10:32:16.770Z,4.00
2023-09-22T10:35:08.113Z,4.33
2023-09-22T10:37:38.418Z,3.83
2023-09-22T10:40:13.386Z,3.43
2023-09-22T10:42:44.996Z,3.50
2023-09-22T10:45:12.037Z,3.83
2023-09-22T10:47:52.983Z,3.73
2023-09-22T10:50:27.768Z,4.00
2023-09-22T10:52:59.271Z,4.70
2023-09-22T10:55:32.474Z,4.03
2023-09-22T10:57:59.780Z,3.87
2023-09-22T11:00:26.428Z,3.33
2023-09-22T11:02:54.411Z,3.87
2023-09-22T11:05:21.431Z,3.30
2023-09-22T11:07:48.790Z,2.83
2023-09-22T11:10:22.417Z,3.00
2023-09-22T11:12:55.903Z,2.60
2023-09-22T11:15:22.476Z,3.20
2023-09-22T11:17:49.192Z,2.30
2023-09-22T11:20:28.374Z,3.07
2023-09-22T11:22:55.180Z,3.00
2023-09-22T11:25:23.259Z,2.90
2023-09-22T11:27:50.853Z,2.87
2023-09-22T11:30:27.868Z,2.53
2023-09-22T11:32:55.416Z,2.77
2023-09-22T11:35:43.688Z,3.10
2023-09-22T11:38:25.108Z,2.80
2023-09-22T11:40:52.768Z,2.73
2023-09-22T11:43:19.286Z,2.50
2023-09-22T11:45:46.139Z,2.80
2023-09-22T11:48:12.830Z,3.07
2023-09-22T11:50:39.200Z,3.10
2023-09-22T11:53:21.315Z,3.10
2023-09-22T11:55:52.160Z,3.30
2023-09-22T11:58:18.596Z,2.93
2023-09-22T12:00:44.952Z,2.57
2023-09-22T12:03:11.349Z,2.37
2023-09-22T12:05:38.134Z,2.20
2023-09-22T12:08:06.710Z,2.37
2023-09-22T12:10:33.150Z,2.30
2023-09-22T12:12:59.585Z,2.00
2023-09-22T12:15:26.037Z,2.20
2023-09-22T12:17:52.458Z,2.10
2023-09-22T12:20:18.914Z,2.23
2023-09-22T12:22:45.337Z,2.10
2023-09-22T12:25:11.886Z,2.00
2023-09-22T12:27:38.259Z,2.47
2023-09-22T12:30:06.534Z,2.30
2023-09-22T12:32:33.257Z,2.17
2023-09-22T12:35:00.494Z,2.07
2023-09-22T12:37:26.976Z,2.20
2023-09-22T12:39:53.368Z,2.00
2023-09-22T12:42:19.741Z,1.97
2023-09-22T12:44:46.834Z,2.10
2023-09-22T12:47:13.607Z,1.97
2023-09-22T12:49:40.101Z,2.00
2023-09-22T12:52:06.506Z,2.30
2023-09-22T12:54:33.341Z,2.20
2023-09-22T12:57:00.414Z,2.17
2023-09-22T12:59:26.779Z,2.13
2023-09-22T13:01:53.226Z,2.20
2023-09-22T13:04:19.865Z,2.37
2023-09-22T13:06:46.393Z,2.47
2023-09-22T13:09:12.846Z,2.10
2023-09-22T13:11:40.008Z,2.20
2023-09-22T13:14:06.547Z,2.10
2023-09-22T13:16:33.095Z,2.07
2023-09-22T13:18:59.536Z,2.23
2023-09-22T13:21:26.221Z,2.60
2023-09-22T13:23:52.678Z,1.97
2023-09-22T13:26:20.506Z,2.07
2023-09-22T13:28:47.085Z,1.70
2023-09-22T13:31:14.104Z,2.20
2023-09-22T13:33:40.776Z,1.93
2023-09-22T13:36:15.842Z,2.07
2023-09-22T13:38:42.185Z,2.30
2023-09-22T13:41:15.705Z,2.20
2023-09-22T13:43:43.332Z,2.30
2023-09-22T13:46:13.436Z,2.03
2023-09-22T13:48:40.943Z,1.80
2023-09-22T13:51:07.979Z,2.03
2023-09-22T13:53:34.827Z,2.43
2023-09-22T13:56:02.816Z,2.00
2023-09-22T13:58:29.721Z,2.13
2023-09-22T14:00:56.192Z,2.20
2023-09-22T14:03:23.723Z,1.90
2023-09-22T14:05:50.380Z,2.47
2023-09-22T14:08:17.648Z,2.17
2023-09-22T14:10:44.200Z,1.60
2023-09-22T14:13:10.848Z,2.00
2023-09-22T14:15:37.257Z,3.23
2023-09-22T14:18:04.290Z,2.80
2023-09-22T14:20:30.815Z,2.00
2023-09-22T14:22:57.543Z,2.10
2023-09-22T14:25:25.363Z,2.10
2023-09-22T14:27:52.947Z,1.90
2023-09-22T14:30:19.612Z,1.90
2023-09-22T14:32:46.058Z,2.17
2023-09-22T14:35:12.537Z,2.13
2023-09-22T14:37:38.950Z,2.37
2023-09-22T14:40:06.730Z,2.27
2023-09-22T14:42:33.480Z,2.30
2023-09-22T14:44:59.925Z,2.20
2023-09-22T14:47:26.418Z,2.30
2023-09-22T14:49:52.988Z,2.27
2023-09-22T14:52:19.551Z,2.23
2023-09-22T14:54:46.012Z,2.40
2023-09-22T14:57:12.529Z,2.13
2023-09-22T14:59:38.931Z,2.40
2023-09-22T15:02:05.644Z,2.43
2023-09-22T15:04:32.379Z,2.60
2023-09-22T15:06:59.184Z,2.30
2023-09-22T15:09:26.119Z,2.30
2023-09-22T15:11:52.504Z,2.60
2023-09-22T15:14:18.894Z,1.77
2023-09-22T15:16:45.501Z,1.70
2023-09-22T15:19:12.522Z,1.73
2023-09-22T15:21:38.975Z,2.00
2023-09-22T15:24:05.524Z,1.80
2023-09-22T15:26:31.870Z,2.13
2023-09-22T15:28:58.226Z,2.13
2023-09-22T15:31:24.751Z,2.03
2023-09-22T15:33:51.207Z,2.10
2023-09-22T15:36:17.754Z,1.80
2023-09-22T15:38:44.851Z,1.80
2023-09-22T15:41:12.372Z,1.87
2023-09-22T15:43:39.755Z,1.87
2023-09-22T15:46:07.706Z,1.77
2023-09-22T15:48:34.922Z,2.00
2023-09-22T15:51:01.773Z,1.80
2023-09-22T15:53:29.136Z,1.70
2023-09-22T15:55:56.033Z,1.90
2023-09-22T15:58:23.183Z,1.80
2023-09-22T16:00:49.910Z,1.90
2023-09-22T16:03:18.268Z,1.73
2023-09-22T16:05:45.107Z,1.73
2023-09-22T16:08:11.886Z,1.93
2023-09-22T16:10:43.456Z,2.13
2023-09-22T16:13:20.822Z,1.80
2023-09-22T16:15:52.743Z,1.90
2023-09-22T16:18:19.149Z,1.87
2023-09-22T16:20:45.667Z,1.80
2023-09-22T16:23:13.082Z,2.00
2023-09-22T16:25:39.583Z,2.00
2023-09-22T16:28:06.181Z,2.03
2023-09-22T16:30:32.535Z,2.07
2023-09-22T16:32:58.925Z,1.93
2023-09-22T16:35:25.496Z,1.87
2023-09-22T16:37:51.953Z,2.00
2023-09-22T16:40:18.442Z,2.00
2023-09-22T16:42:44.868Z,1.83
2023-09-22T16:45:11.230Z,1.90
2023-09-22T16:47:37.634Z,1.80
2023-09-22T16:50:05.270Z,2.30
2023-09-22T16:52:33.797Z,1.70
2023-09-22T16:55:01.966Z,2.00
2023-09-22T16:57:28.650Z,2.07
2023-09-22T16:59:55.206Z,2.97
2023-09-22T17:02:21.855Z,2.40
2023-09-22T17:04:48.414Z,2.10
2023-09-22T17:07:14.872Z,2.10
2023-09-22T17:09:41.223Z,2.33
2023-09-22T17:12:07.622Z,2.07
2023-09-22T17:14:34.006Z,2.10
2023-09-22T17:17:00.402Z,2.00
2023-09-22T17:19:28.227Z,2.03
2023-09-22T17:21:54.577Z,1.90
2023-09-22T17:24:21.951Z,2.07
2023-09-22T17:26:49.530Z,1.90
2023-09-22T17:29:16.111Z,2.10
2023-09-22T17:31:42.581Z,1.90
2023-09-22T17:34:10.068Z,1.90
2023-09-22T17:36:36.918Z,1.83
2023-09-22T17:39:06.962Z,1.90
2023-09-22T17:41:33.632Z,1.97
2023-09-22T17:44:00.023Z,1.90
2023-09-22T17:46:27.909Z,2.07
2023-09-22T17:48:55.644Z,1.80
2023-09-22T17:51:21.992Z,2.00
2023-09-22T17:53:48.914Z,1.77
2023-09-22T17:56:15.676Z,2.10
2023-09-22T17:58:42.657Z,2.00
2023-09-22T18:01:12.500Z,2.27
2023-09-22T18:03:43.109Z,2.10
2023-09-22T18:06:10.751Z,2.10
2023-09-22T18:08:37.487Z,2.20
2023-09-22T18:11:04.213Z,1.90
2023-09-22T18:13:31.486Z,2.00
2023-09-22T18:15:58.361Z,1.83
2023-09-22T18:18:24.704Z,2.10
2023-09-22T18:20:54.278Z,1.83
2023-09-22T18:23:20.990Z,2.40
2023-09-22T18:25:52.723Z,2.30
2023-09-22T18:28:19.220Z,2.00
2023-09-22T18:30:45.641Z,2.40
2023-09-22T18:33:12.689Z,2.13
2023-09-22T18:35:39.504Z,2.20
2023-09-22T18:38:06.113Z,2.30
2023-09-22T18:40:33.060Z,2.60
2023-09-22T18:43:00.223Z,2.30
2023-09-22T18:45:26.720Z,2.40
2023-09-22T18:47:53.173Z,2.40
2023-09-22T18:50:20.067Z,2.33
2023-09-22T18:52:46.471Z,2.50
2023-09-22T18:55:12.842Z,2.97
2023-09-22T18:57:39.713Z,2.50
2023-09-22T19:00:06.895Z,3.00
2023-09-22T19:02:33.324Z,3.17
2023-09-22T19:05:00.077Z,3.73
2023-09-22T19:07:26.922Z,3.80
2023-09-22T19:09:53.316Z,4.17
2023-09-22T19:12:19.994Z,3.47
2023-09-22T19:14:46.341Z,3.37
2023-09-22T19:17:14.142Z,3.00
2023-09-22T19:19:40.979Z,2.77
2023-09-22T19:22:08.495Z,3.20
2023-09-22T19:24:34.928Z,3.07
2023-09-22T19:27:03.437Z,2.87
2023-09-22T19:29:30.556Z,2.60
2023-09-22T19:31:56.960Z,3.23
2023-09-22T19:34:23.632Z,3.33
2023-09-22T19:36:50.877Z,3.50
2023-09-22T19:39:17.285Z,3.10
2023-09-22T19:41:43.793Z,3.20
2023-09-22T19:44:10.201Z,3.17
2023-09-22T19:46:36.897Z,2.93
2023-09-22T19:49:06.608Z,3.07
2023-09-22T19:51:33.658Z,3.17
2023-09-22T19:54:00.618Z,2.90
2023-09-22T19:56:29.319Z,3.23
2023-09-22T19:58:56.609Z,3.00
2023-09-22T20:01:23.358Z,3.50
2023-09-22T20:03:50.453Z,3.00
2023-09-22T20:06:17.000Z,3.13
2023-09-22T20:08:43.610Z,3.00
2023-09-22T20:11:10.859Z,2.80
2023-09-22T20:13:39.122Z,2.83
2023-09-22T20:16:06.927Z,2.70
2023-09-22T20:18:34.412Z,2.57
2023-09-22T20:21:04.607Z,2.97
2023-09-22T20:23:31.665Z,2.73
2023-09-22T20:26:00.385Z,2.97
2023-09-22T20:28:27.277Z,2.83
2023-09-22T20:31:04.894Z,2.83
2023-09-22T20:33:31.521Z,2.97
2023-09-22T20:36:05.539Z,2.70
2023-09-22T20:38:32.132Z,3.23
2023-09-22T20:41:03.050Z,2.77
2023-09-22T20:43:32.735Z,2.50
2023-09-22T20:46:01.600Z,2.87
2023-09-22T20:48:31.964Z,2.40
2023-09-22T20:50:59.130Z,2.80
2023-09-22T20:53:28.624Z,2.70
2023-09-22T20:55:55.225Z,3.00
2023-09-22T20:58:22.743Z,3.10
2023-09-22T21:00:49.939Z,3.00
2023-09-22T21:03:21.426Z,2.87
2023-09-22T21:05:48.464Z,2.97
2023-09-22T21:08:15.600Z,3.07
2023-09-22T21:10:42.067Z,2.80
2023-09-22T21:13:09.997Z,3.70
2023-09-22T21:15:37.113Z,3.97
2023-09-22T21:18:03.756Z,3.50
2023-09-22T21:20:31.324Z,3.77
2023-09-22T21:22:58.549Z,3.37
2023-09-22T21:25:25.876Z,3.60
2023-09-22T21:27:52.301Z,3.73
2023-09-22T21:30:21.755Z,3.63
2023-09-22T21:32:49.020Z,3.70
2023-09-22T21:35:16.763Z,3.93
2023-09-22T21:37:46.188Z,3.60
2023-09-22T21:40:16.691Z,3.90
2023-09-22T21:42:43.144Z,4.00
2023-09-22T21:45:09.983Z,3.57
2023-09-22T21:47:36.535Z,3.70
2023-09-22T21:50:06.770Z,3.37
2023-09-22T21:52:35.987Z,3.73
2023-09-22T21:55:04.156Z,3.80
2023-09-22T21:57:31.814Z,3.67
2023-09-22T22:00:00.042Z,3.50
2023-09-22T22:02:27.477Z,3.30
2023-09-22T22:04:54.573Z,3.27
2023-09-22T22:07:23.512Z,3.63
2023-09-22T22:09:58.422Z,3.53
2023-09-22T22:12:24.963Z,3.60
2023-09-22T22:14:53.276Z,3.37
2023-09-22T22:17:26.322Z,3.30
2023-09-22T22:19:53.799Z,3.33
2023-09-22T22:22:21.150Z,3.73
2023-09-22T22:24:50.460Z,3.70
2023-09-22T22:27:21.014Z,3.63
2023-09-22T22:29:48.937Z,3.40
2023-09-22T22:32:16.274Z,3.60
2023-09-22T22:34:44.839Z,3.30
2023-09-22T22:37:15.350Z,3.37
2023-09-22T22:39:42.050Z,4.00
2023-09-22T22:42:12.517Z,3.80
2023-09-22T22:44:40.516Z,3.87
2023-09-22T22:47:15.081Z,3.40
2023-09-22T22:49:41.604Z,3.53
2023-09-22T22:52:08.811Z,4.07
2023-09-22T22:54:38.670Z,4.70
2023-09-22T22:57:06.241Z,4.70
2023-09-22T22:59:38.310Z,4.10
2023-09-22T23:02:05.264Z,4.03
2023-09-22T23:04:32.834Z,4.33
2023-09-22T23:06:59.430Z,3.90
2023-09-22T23:09:26.469Z,4.07
2023-09-22T23:11:55.970Z,4.13
2023-09-22T23:14:23.893Z,3.90
2023-09-22T23:16:51.965Z,4.70
2023-09-22T23:19:19.691Z,4.70
2023-09-22T23:21:46.896Z,4.57
2023-09-22T23:24:16.278Z,5.20
2023-09-22T23:26:43.367Z,4.70
2023-09-22T23:29:13.455Z,4.60
2023-09-22T23:31:44.003Z,4.70
2023-09-22T23:34:10.831Z,4.80
2023-09-22T23:36:38.268Z,4.90
2023-09-22T23:39:06.952Z,4.27
2023-09-22T23:41:33.803Z,4.93
2023-09-22T23:44:00.602Z,4.47
2023-09-22T23:46:27.699Z,5.33
2023-09-22T23:48:56.239Z,5.03
2023-09-22T23:51:23.899Z,4.80
2023-09-22T23:53:50.615Z,4.80
2023-09-22T23:56:17.073Z,5.10
2023-09-22T23:58:43.574Z,4.93
